Airfield :







YOU CAN JOIN US ON...

 
LOGIN :

Register | Disclaimer

   EN    FR    IT 

 









Legend :    VFR   Marginal VFR   IFR   Intensive IFR   Very Intensive IFR
Visi :
Ceiling :
>= 8 km
>= 3000ft
5 to 8 km
1000 to 3000 ft
1500m to 5 km
500 to 1000 ft
800 to 1500m
200 to 500 ft
< 800m
< 200 ft
Symbols :   Thunderstorms  Fog  Heavy snow  Heavy precipitations  Wind > 20 kt






- Airport Elevation : 477 ft
- IATA code : YHZ


CYHZ - Halifax Stanfield Int.

CURRENT METAR :
  • 151000Z 29004KT 12SM MIFG FEW005 FEW160 BKN250 15/14 A3004 RMK SF1AC1CI4 SF TR FG BANK N-NE MIFG E SLP174 DENSITY ALT 600FT

EXPIRED METARs :
  • 150900Z 26005KT 12SM MIFG FEW005 FEW030 BKN250 15/14 A3002 RMK SF1SC1CI5 SF TR SC TR MIFG E FG BANK NE AND E SLP168 DENSITY ALT 500FT
  • 150800Z 28005KT 15SM FEW005 FEW025 BKN250 15/14 A3001 RMK SF1SC1CI5 SF TR SC TR SLP164 DENSITY ALT 500FT

TAF TAF CYHZ
Valid from the 15 at 09:00 until the 16 at 06:00 UTC


150840Z 1509/1606 28005KT P6SM FEW005
TEMPO 1509/1513 BKN005
PROB30 1509/1510 1SM BR BKN003
FM151300 VRB03KT P6SM SCT030
FM151900 20008KT P6SM BKN040
TEMPO 1519/1524 P6SM -SHRA
FM160000 20006KT P6SM SCT040
BECMG 1603/1605 VRB03KT RMK NXT FCST BY 151200Z
CZQM FIR / North America



MET'MAP, your aeronautical weather chart ! - Copyright ORBIFLY December 2007 - Disclaimer

ORBIFLY MET'MAP TEAM :

Programming & Development : Alexandra Zaïnal
Original concept : Baudouin d'Aumeries
Technical & hardware support : Manuel Goepfert
Assistance : Marc-Olivier Méhu




SOURCES & CREDITS :

   NOAA